Time;durP1;ratioP1;P1;durP2;ratioP2;P2;SDS_P1;SDS_P2;PMS_P1;PMS_P2;Temp;Humidity;BMP_temperature;BMP_pressure;BME280_temperature;BME280_humidity;BME280_pressure;Samples;Min_cycle;Max_cycle;Signal;HPM_P1;HPM_P2
2024/04/15 00:01:04;;;;;;;2.67;2.10;;;;;;;;;;5418230;26;20225;-54
2024/04/15 00:03:30;;;;;;;3.73;2.03;;;;;;;;;;5414714;26;20253;-55
2024/04/15 00:05:56;;;;;;;3.17;2.07;;;;;;;;;;5418940;26;20238;-55
2024/04/15 00:08:22;;;;;;;4.43;2.20;;;;;;;;;;5433349;26;20720;-55
2024/04/15 00:10:48;;;;;;;4.27;2.20;;;;;;;;;;5415800;26;20292;-55
2024/04/15 00:13:15;;;;;;;6.37;2.80;;;;;;;;;;5424343;26;20231;-55
2024/04/15 00:15:53;;;;;;;5.53;2.30;;;;;;;;;;5426290;26;20290;-54
2024/04/15 00:18:19;;;;;;;3.50;2.30;;;;;;;;;;5425773;26;20276;-53
2024/04/15 00:20:45;;;;;;;3.30;2.37;;;;;;;;;;5437347;26;20233;-54
2024/04/15 00:23:11;;;;;;;5.23;2.53;;;;;;;;;;5426095;26;20233;-54
2024/04/15 00:25:37;;;;;;;5.73;2.33;;;;;;;;;;5417190;26;20326;-55
2024/04/15 00:28:03;;;;;;;5.57;2.57;;;;;;;;;;5426293;26;20362;-53
2024/04/15 00:30:29;;;;;;;6.40;3.70;;;;;;;;;;5420904;26;20243;-56
2024/04/15 00:32:58;;;;;;;5.73;2.47;;;;;;;;;;5420849;26;20246;-55
2024/04/15 00:35:24;;;;;;;4.83;2.70;;;;;;;;;;5420442;26;20352;-54
2024/04/15 00:37:50;;;;;;;5.40;2.43;;;;;;;;;;5425342;26;20356;-55
2024/04/15 00:40:16;;;;;;;5.03;2.63;;;;;;;;;;5419220;26;20281;-53
2024/04/15 00:42:42;;;;;;;4.90;2.73;;;;;;;;;;5425233;26;20239;-56
2024/04/15 00:45:29;;;;;;;3.53;2.27;;;;;;;;;;5437087;26;21150;-55
2024/04/15 00:47:55;;;;;;;2.40;1.97;;;;;;;;;;5439130;26;20237;-55
2024/04/15 00:50:21;;;;;;;4.17;2.30;;;;;;;;;;5418343;26;20284;-55
2024/04/15 00:52:47;;;;;;;4.47;2.27;;;;;;;;;;5425720;26;20234;-56
2024/04/15 00:55:13;;;;;;;5.33;2.07;;;;;;;;;;5419163;26;20277;-55
2024/04/15 00:57:43;;;;;;;5.03;2.13;;;;;;;;;;5425738;26;20238;-55
2024/04/15 01:00:10;;;;;;;3.93;2.60;;;;;;;;;;5422841;26;20781;-56
2024/04/15 01:02:36;;;;;;;3.67;2.00;;;;;;;;;;5416496;26;21002;-55
2024/04/15 01:05:02;;;;;;;5.07;2.63;;;;;;;;;;5422282;26;20575;-55
2024/04/15 01:07:28;;;;;;;5.27;3.00;;;;;;;;;;5421899;26;20237;-54
2024/04/15 01:09:54;;;;;;;5.07;2.33;;;;;;;;;;5421599;26;20299;-55
2024/04/15 01:12:20;;;;;;;4.37;2.50;;;;;;;;;;5427616;26;20543;-55
2024/04/15 01:14:46;;;;;;;3.90;2.30;;;;;;;;;;5419665;26;20672;-55
2024/04/15 01:17:12;;;;;;;2.73;1.70;;;;;;;;;;5427252;26;20234;-55
2024/04/15 01:19:38;;;;;;;4.97;2.43;;;;;;;;;;5427384;26;20641;-55
2024/04/15 01:22:06;;;;;;;4.73;2.17;;;;;;;;;;5423388;26;20235;-54
2024/04/15 01:24:32;;;;;;;5.70;2.03;;;;;;;;;;5420323;26;20240;-53
2024/04/15 01:26:58;;;;;;;4.13;2.40;;;;;;;;;;5420006;26;20238;-51
2024/04/15 01:29:24;;;;;;;2.27;2.03;;;;;;;;;;5431960;26;20231;-51
2024/04/15 01:31:50;;;;;;;5.03;2.27;;;;;;;;;;5419485;26;20717;-52
2024/04/15 01:34:16;;;;;;;4.90;2.43;;;;;;;;;;5425214;26;20234;-51
2024/04/15 01:36:42;;;;;;;2.43;2.13;;;;;;;;;;5419470;26;20607;-53
2024/04/15 01:39:08;;;;;;;4.07;2.30;;;;;;;;;;5418767;26;20269;-54
2024/04/15 01:41:34;;;;;;;3.43;2.80;;;;;;;;;;5417752;26;20253;-53
2024/04/15 01:44:00;;;;;;;6.27;2.47;;;;;;;;;;5428549;26;20284;-54
2024/04/15 01:46:26;;;;;;;4.17;2.07;;;;;;;;;;5420625;26;20756;-55
2024/04/15 01:48:53;;;;;;;4.93;2.53;;;;;;;;;;5430271;26;20242;-55
2024/04/15 01:51:19;;;;;;;3.57;2.70;;;;;;;;;;5416653;26;20718;-54
2024/04/15 01:53:45;;;;;;;3.30;2.57;;;;;;;;;;5424165;26;20978;-54
2024/04/15 01:56:11;;;;;;;4.37;2.43;;;;;;;;;;5415352;26;20231;-54
2024/04/15 01:58:37;;;;;;;5.57;2.67;;;;;;;;;;5430395;26;20276;-54
2024/04/15 02:01:04;;;;;;;5.20;2.70;;;;;;;;;;5416297;26;20242;-55
2024/04/15 02:03:30;;;;;;;5.27;2.63;;;;;;;;;;5431133;26;20577;-55
2024/04/15 02:05:56;;;;;;;3.17;2.53;;;;;;;;;;5427702;26;20245;-55
2024/04/15 02:08:22;;;;;;;4.33;2.70;;;;;;;;;;5435655;26;20229;-55
2024/04/15 02:10:48;;;;;;;4.77;2.30;;;;;;;;;;5430151;26;20340;-55
2024/04/15 02:13:14;;;;;;;4.73;2.50;;;;;;;;;;5424543;26;20277;-54
2024/04/15 02:15:43;;;;;;;2.87;2.60;;;;;;;;;;5422231;26;20238;-55
2024/04/15 02:18:09;;;;;;;4.43;3.53;;;;;;;;;;5426075;26;20828;-52
2024/04/15 02:20:35;;;;;;;4.40;2.97;;;;;;;;;;5424401;26;20242;-53
2024/04/15 02:23:01;;;;;;;3.93;2.47;;;;;;;;;;5423288;26;20245;-53
2024/04/15 02:25:27;;;;;;;4.17;2.27;;;;;;;;;;5422662;26;20606;-53
2024/04/15 02:27:53;;;;;;;5.40;3.23;;;;;;;;;;5434204;26;20232;-53
2024/04/15 02:30:19;;;;;;;3.80;2.60;;;;;;;;;;5426850;26;20233;-53
2024/04/15 02:32:46;;;;;;;4.03;2.70;;;;;;;;;;5439140;26;20226;-53
2024/04/15 02:35:12;;;;;;;5.93;3.10;;;;;;;;;;5417524;26;20273;-52
2024/04/15 02:37:38;;;;;;;5.13;2.70;;;;;;;;;;5425706;26;20473;-54
2024/04/15 02:40:04;;;;;;;3.07;2.43;;;;;;;;;;5425159;26;20287;-54
2024/04/15 02:42:30;;;;;;;3.53;2.77;;;;;;;;;;5423483;26;20271;-54
2024/04/15 02:44:56;;;;;;;2.83;2.37;;;;;;;;;;5432433;26;20229;-56
2024/04/15 02:47:23;;;;;;;6.17;3.20;;;;;;;;;;5423732;26;20235;-56
2024/04/15 02:49:49;;;;;;;3.20;2.60;;;;;;;;;;5421814;26;20830;-53
2024/04/15 02:52:15;;;;;;;3.37;3.03;;;;;;;;;;5430544;26;20230;-56
2024/04/15 02:54:41;;;;;;;5.43;3.40;;;;;;;;;;5426011;26;20276;-56
2024/04/15 02:57:07;;;;;;;4.33;2.80;;;;;;;;;;5419973;26;20233;-56
2024/04/15 02:59:33;;;;;;;6.57;3.07;;;;;;;;;;5432563;26;20229;-56
2024/04/15 03:01:59;;;;;;;2.90;2.60;;;;;;;;;;5427629;26;20806;-56
2024/04/15 03:04:25;;;;;;;3.57;2.73;;;;;;;;;;5420440;26;20281;-56
2024/04/15 03:06:54;;;;;;;6.30;3.10;;;;;;;;;;5418302;26;20292;-56
2024/04/15 03:09:23;;;;;;;5.47;2.83;;;;;;;;;;5421075;26;20233;-55
2024/04/15 03:11:49;;;;;;;5.90;3.53;;;;;;;;;;5417327;26;20253;-55
2024/04/15 03:14:15;;;;;;;6.67;3.37;;;;;;;;;;5428894;26;20835;-55
2024/04/15 03:16:44;;;;;;;5.23;3.20;;;;;;;;;;5428881;26;20312;-55
2024/04/15 03:19:10;;;;;;;4.57;3.10;;;;;;;;;;5423804;26;20240;-55
2024/04/15 03:21:36;;;;;;;4.90;3.00;;;;;;;;;;5426621;26;20752;-55
2024/04/15 03:24:03;;;;;;;4.77;3.27;;;;;;;;;;5424235;26;20732;-55
2024/04/15 03:26:29;;;;;;;3.97;2.93;;;;;;;;;;5430606;26;20318;-55
2024/04/15 03:28:55;;;;;;;4.47;3.33;;;;;;;;;;5439785;26;20292;-55
2024/04/15 03:31:21;;;;;;;6.60;3.30;;;;;;;;;;5422100;26;20275;-56
2024/04/15 03:33:47;;;;;;;6.07;2.80;;;;;;;;;;5418177;26;20283;-55
2024/04/15 03:36:13;;;;;;;4.40;2.60;;;;;;;;;;5416224;26;20227;-55
2024/04/15 03:38:39;;;;;;;3.87;2.53;;;;;;;;;;5419535;26;20555;-55
2024/04/15 03:41:05;;;;;;;4.97;3.03;;;;;;;;;;5428181;26;20285;-55
2024/04/15 03:43:31;;;;;;;7.77;2.97;;;;;;;;;;5422890;26;20343;-55
2024/04/15 03:45:57;;;;;;;4.70;2.70;;;;;;;;;;5429028;26;20336;-56
2024/04/15 03:48:23;;;;;;;3.80;2.90;;;;;;;;;;5424972;26;20245;-55
2024/04/15 03:50:49;;;;;;;5.63;3.20;;;;;;;;;;5430381;26;20279;-55
2024/04/15 03:53:15;;;;;;;9.33;3.23;;;;;;;;;;5424568;26;20578;-55
2024/04/15 03:55:41;;;;;;;4.33;3.33;;;;;;;;;;5424220;26;20245;-55
2024/04/15 03:58:07;;;;;;;6.63;2.87;;;;;;;;;;5446312;26;20244;-54
2024/04/15 04:00:33;;;;;;;7.60;3.80;;;;;;;;;;5424518;26;20738;-54
2024/04/15 04:02:59;;;;;;;5.40;3.20;;;;;;;;;;5438463;26;20228;-54
2024/04/15 04:05:25;;;;;;;5.57;3.60;;;;;;;;;;5428398;26;20290;-54
2024/04/15 04:07:51;;;;;;;4.23;3.23;;;;;;;;;;5426918;26;20259;-54
2024/04/15 04:10:17;;;;;;;3.43;2.90;;;;;;;;;;5434131;26;20846;-54
2024/04/15 04:12:43;;;;;;;6.17;3.47;;;;;;;;;;5421174;26;20230;-54
2024/04/15 04:15:09;;;;;;;3.30;2.57;;;;;;;;;;5423537;26;20225;-54
2024/04/15 04:17:35;;;;;;;3.70;3.13;;;;;;;;;;5430745;26;20746;-54
2024/04/15 04:20:01;;;;;;;8.07;3.80;;;;;;;;;;5429877;26;20246;-54
2024/04/15 04:22:27;;;;;;;3.57;2.80;;;;;;;;;;5421053;26;20327;-54
2024/04/15 04:24:53;;;;;;;5.83;3.00;;;;;;;;;;5432145;26;20241;-54
2024/04/15 04:27:19;;;;;;;4.83;3.47;;;;;;;;;;5429339;26;20777;-54
2024/04/15 04:29:45;;;;;;;5.97;3.40;;;;;;;;;;5441916;26;20245;-54
2024/04/15 04:32:12;;;;;;;5.27;2.80;;;;;;;;;;5425056;26;20276;-54
2024/04/15 04:34:38;;;;;;;5.70;3.30;;;;;;;;;;5415427;26;20230;-54
2024/04/15 04:37:04;;;;;;;3.53;3.03;;;;;;;;;;5425401;26;20281;-54
2024/04/15 04:39:30;;;;;;;4.53;2.87;;;;;;;;;;5436280;26;20276;-54
2024/04/15 04:41:56;;;;;;;5.50;3.00;;;;;;;;;;5419665;26;21063;-54
2024/04/15 04:44:22;;;;;;;5.20;3.47;;;;;;;;;;5419828;26;20859;-54
2024/04/15 04:46:48;;;;;;;4.47;2.73;;;;;;;;;;5426346;26;20250;-54
2024/04/15 04:49:14;;;;;;;4.30;2.97;;;;;;;;;;5427793;26;20658;-54
2024/04/15 04:51:40;;;;;;;3.90;3.40;;;;;;;;;;5428328;26;20751;-54
2024/04/15 04:54:06;;;;;;;6.23;2.70;;;;;;;;;;5431028;26;20240;-54
2024/04/15 04:56:32;;;;;;;5.60;2.80;;;;;;;;;;5424946;26;20371;-54
2024/04/15 04:58:58;;;;;;;3.53;3.00;;;;;;;;;;5422063;26;20236;-53
2024/04/15 05:01:24;;;;;;;3.50;2.70;;;;;;;;;;5426232;26;20272;-53
2024/04/15 05:03:51;;;;;;;5.27;3.03;;;;;;;;;;5429750;26;20600;-54
2024/04/15 05:06:18;;;;;;;4.50;2.80;;;;;;;;;;5427493;26;20278;-53
2024/04/15 05:08:45;;;;;;;5.43;3.00;;;;;;;;;;5427067;26;22473;-53
2024/04/15 05:11:11;;;;;;;6.17;3.90;;;;;;;;;;5421832;26;20374;-54
2024/04/15 05:13:37;;;;;;;7.23;4.13;;;;;;;;;;5416254;26;20275;-55
2024/04/15 05:16:06;;;;;;;6.30;4.30;;;;;;;;;;5421618;26;20711;-54
2024/04/15 05:18:33;;;;;;;6.53;4.50;;;;;;;;;;5423188;26;20247;-53
2024/04/15 05:21:00;;;;;;;7.93;4.40;;;;;;;;;;5422813;26;20342;-55
2024/04/15 05:23:26;;;;;;;10.73;4.67;;;;;;;;;;5422731;26;20246;-54
2024/04/15 05:25:52;;;;;;;4.20;3.57;;;;;;;;;;5422165;26;20285;-54
2024/04/15 05:28:18;;;;;;;8.43;3.93;;;;;;;;;;5420990;26;20335;-54
2024/04/15 05:30:44;;;;;;;7.97;4.30;;;;;;;;;;5443594;26;20227;-55
2024/04/15 05:33:10;;;;;;;6.53;4.30;;;;;;;;;;5428753;26;20673;-54
2024/04/15 05:35:36;;;;;;;8.73;4.33;;;;;;;;;;5431828;26;20289;-53
2024/04/15 05:38:02;;;;;;;7.90;3.77;;;;;;;;;;5427569;26;20234;-53
2024/04/15 05:40:28;;;;;;;6.80;4.27;;;;;;;;;;5434689;26;20322;-53
2024/04/15 05:42:54;;;;;;;7.47;4.10;;;;;;;;;;5427639;26;20266;-53
2024/04/15 05:45:20;;;;;;;7.30;4.17;;;;;;;;;;5429638;26;20285;-54
2024/04/15 05:47:46;;;;;;;6.90;4.10;;;;;;;;;;5437993;26;20233;-53
2024/04/15 05:50:12;;;;;;;7.43;3.90;;;;;;;;;;5421949;26;20607;-53
2024/04/15 05:52:38;;;;;;;7.73;4.13;;;;;;;;;;5431279;26;20226;-53
2024/04/15 05:55:04;;;;;;;8.83;3.53;;;;;;;;;;5426736;26;20569;-54
2024/04/15 05:57:30;;;;;;;6.23;3.93;;;;;;;;;;5429083;26;20226;-54
2024/04/15 05:59:56;;;;;;;6.57;3.57;;;;;;;;;;5417528;26;20277;-54
2024/04/15 06:02:22;;;;;;;5.83;4.17;;;;;;;;;;5417879;26;20273;-54
2024/04/15 06:04:50;;;;;;;10.57;3.83;;;;;;;;;;5429328;26;20234;-54
2024/04/15 06:07:16;;;;;;;5.70;3.27;;;;;;;;;;5430642;26;20272;-55
2024/04/15 06:09:42;;;;;;;7.00;3.27;;;;;;;;;;5434911;26;20880;-54
2024/04/15 06:12:08;;;;;;;5.47;3.23;;;;;;;;;;5421684;26;20717;-54
2024/04/15 06:14:35;;;;;;;6.80;3.57;;;;;;;;;;5413180;26;20282;-54
2024/04/15 06:17:01;;;;;;;4.53;3.10;;;;;;;;;;5423119;26;20234;-53
2024/04/15 06:19:27;;;;;;;7.40;3.30;;;;;;;;;;5419174;26;20330;-53
2024/04/15 06:21:54;;;;;;;7.77;3.33;;;;;;;;;;5415899;26;20706;-53
2024/04/15 06:24:20;;;;;;;7.17;2.80;;;;;;;;;;5420036;26;20259;-53
2024/04/15 06:26:47;;;;;;;6.60;3.20;;;;;;;;;;5420415;26;20246;-53
2024/04/15 06:29:13;;;;;;;5.33;3.17;;;;;;;;;;5421679;26;20285;-53
2024/04/15 06:31:39;;;;;;;4.60;2.60;;;;;;;;;;5417243;26;20234;-53
2024/04/15 06:34:05;;;;;;;6.67;3.20;;;;;;;;;;5421890;26;20788;-53
2024/04/15 06:36:31;;;;;;;5.30;2.90;;;;;;;;;;5436328;26;20229;-53
2024/04/15 06:38:57;;;;;;;6.03;2.63;;;;;;;;;;5426285;26;20333;-53
2024/04/15 06:41:24;;;;;;;4.80;3.07;;;;;;;;;;5416457;26;20236;-53
2024/04/15 06:43:50;;;;;;;3.70;2.50;;;;;;;;;;5423084;26;20234;-53
2024/04/15 06:46:16;;;;;;;5.37;2.47;;;;;;;;;;5419484;26;20281;-53
2024/04/15 06:48:43;;;;;;;4.90;2.70;;;;;;;;;;5427553;26;21167;-53
2024/04/15 06:51:09;;;;;;;5.37;2.70;;;;;;;;;;5424800;26;20746;-54
2024/04/15 06:53:35;;;;;;;3.53;2.53;;;;;;;;;;5430426;26;20246;-53
2024/04/15 06:56:02;;;;;;;5.90;2.70;;;;;;;;;;5416061;26;20239;-53
2024/04/15 06:58:28;;;;;;;8.40;2.40;;;;;;;;;;5428660;26;20281;-53
2024/04/15 07:00:56;;;;;;;4.73;2.47;;;;;;;;;;5434263;26;20230;-53
2024/04/15 07:03:23;;;;;;;7.30;2.70;;;;;;;;;;5431721;26;20238;-53
2024/04/15 07:05:49;;;;;;;3.60;2.40;;;;;;;;;;5422441;26;20238;-53
2024/04/15 07:08:15;;;;;;;5.20;2.70;;;;;;;;;;5417918;26;20690;-53
2024/04/15 07:10:41;;;;;;;6.40;3.13;;;;;;;;;;5423173;26;20238;-53
2024/04/15 07:13:08;;;;;;;3.57;2.30;;;;;;;;;;5423682;26;20281;-54
2024/04/15 07:15:34;;;;;;;6.80;2.40;;;;;;;;;;5417437;26;20277;-53
2024/04/15 07:18:00;;;;;;;7.43;2.43;;;;;;;;;;5415349;26;20313;-52
2024/04/15 07:20:26;;;;;;;5.20;2.50;;;;;;;;;;5425686;26;20223;-51
2024/04/15 07:22:52;;;;;;;7.60;2.73;;;;;;;;;;5425845;26;20274;-52
2024/04/15 07:25:18;;;;;;;4.40;1.87;;;;;;;;;;5415287;26;20331;-52
2024/04/15 07:27:44;;;;;;;6.50;2.50;;;;;;;;;;5418644;26;20246;-53
2024/04/15 07:30:11;;;;;;;4.83;2.00;;;;;;;;;;5431552;26;20230;-53
2024/04/15 07:32:38;;;;;;;4.43;3.50;;;;;;;;;;5427970;26;20341;-53
2024/04/15 07:35:04;;;;;;;5.27;2.10;;;;;;;;;;5427134;26;20570;-54
2024/04/15 07:37:31;;;;;;;6.37;2.63;;;;;;;;;;5427180;26;20314;-53
2024/04/15 07:39:57;;;;;;;4.43;2.27;;;;;;;;;;5421188;26;20392;-55
2024/04/15 07:42:23;;;;;;;6.70;2.13;;;;;;;;;;5419846;26;20274;-55
2024/04/15 07:44:49;;;;;;;5.30;2.60;;;;;;;;;;5419206;26;20242;-55
2024/04/15 07:47:16;;;;;;;7.17;2.53;;;;;;;;;;5433318;26;20250;-56
2024/04/15 07:49:42;;;;;;;6.30;2.33;;;;;;;;;;5432252;26;20268;-56
2024/04/15 07:52:08;;;;;;;8.23;2.40;;;;;;;;;;5416939;26;20230;-54
2024/04/15 07:54:34;;;;;;;5.70;2.40;;;;;;;;;;5423419;26;20226;-54
2024/04/15 07:57:00;;;;;;;5.20;2.73;;;;;;;;;;5426377;26;20333;-56
2024/04/15 07:59:26;;;;;;;5.83;2.30;;;;;;;;;;5413975;26;20298;-55
2024/04/15 08:01:52;;;;;;;8.07;2.50;;;;;;;;;;5417614;26;20265;-56
2024/04/15 08:04:18;;;;;;;6.20;2.50;;;;;;;;;;5429457;26;20227;-53
2024/04/15 08:06:44;;;;;;;6.00;2.47;;;;;;;;;;5431656;26;20560;-56
2024/04/15 08:09:10;;;;;;;5.53;3.00;;;;;;;;;;5428861;26;20348;-55
2024/04/15 08:11:36;;;;;;;15.60;2.40;;;;;;;;;;5425672;26;20257;-53
2024/04/15 08:14:03;;;;;;;7.87;2.50;;;;;;;;;;5427578;26;20268;-53
2024/04/15 08:16:29;;;;;;;6.80;2.73;;;;;;;;;;5426067;26;20231;-54
2024/04/15 08:18:55;;;;;;;3.07;2.10;;;;;;;;;;5414561;26;20231;-53
2024/04/15 08:21:21;;;;;;;5.40;2.40;;;;;;;;;;5420666;26;20272;-53
2024/04/15 08:23:47;;;;;;;3.87;2.13;;;;;;;;;;5420056;26;20811;-56
2024/04/15 08:26:13;;;;;;;4.87;1.87;;;;;;;;;;5412521;26;20231;-54
2024/04/15 08:28:40;;;;;;;5.90;2.00;;;;;;;;;;5428207;26;20233;-56
2024/04/15 08:31:06;;;;;;;5.80;2.27;;;;;;;;;;5428418;26;20258;-54
2024/04/15 08:33:32;;;;;;;3.17;2.00;;;;;;;;;;5424097;26;20221;-54
2024/04/15 08:36:00;;;;;;;4.33;2.40;;;;;;;;;;5419265;26;20274;-54
2024/04/15 08:38:26;;;;;;;5.57;2.37;;;;;;;;;;5427778;26;20230;-54
2024/04/15 08:40:52;;;;;;;5.10;2.03;;;;;;;;;;5423239;26;20247;-54
2024/04/15 08:43:21;;;;;;;4.67;2.43;;;;;;;;;;5431304;26;20291;-54
2024/04/15 08:45:52;;;;;;;7.00;2.20;;;;;;;;;;5421869;26;20818;-54
2024/04/15 08:48:21;;;;;;;5.23;2.00;;;;;;;;;;5432489;26;20223;-54
2024/04/15 08:50:47;;;;;;;8.27;2.13;;;;;;;;;;5425504;26;20231;-53
2024/04/15 08:53:13;;;;;;;3.77;2.20;;;;;;;;;;5431574;26;20347;-53
2024/04/15 08:55:39;;;;;;;2.03;1.73;;;;;;;;;;5429928;26;20362;-54
2024/04/15 08:58:05;;;;;;;3.03;1.80;;;;;;;;;;5422464;26;20235;-54
2024/04/15 09:00:33;;;;;;;5.53;2.33;;;;;;;;;;5421303;26;20322;-54
2024/04/15 09:02:59;;;;;;;5.43;2.17;;;;;;;;;;5433024;26;20276;-54
2024/04/15 09:05:25;;;;;;;8.27;2.00;;;;;;;;;;5427313;26;20240;-53
2024/04/15 09:07:52;;;;;;;5.97;2.23;;;;;;;;;;5420420;26;20233;-54
2024/04/15 09:10:18;;;;;;;4.07;1.53;;;;;;;;;;5420446;26;20780;-54
2024/04/15 09:12:45;;;;;;;4.67;2.00;;;;;;;;;;5432865;26;20231;-56
2024/04/15 09:15:12;;;;;;;4.13;1.90;;;;;;;;;;5421890;26;20353;-55
2024/04/15 09:17:38;;;;;;;7.93;2.20;;;;;;;;;;5422026;26;20568;-56
2024/04/15 09:20:04;;;;;;;4.40;2.10;;;;;;;;;;5423936;26;21051;-55
2024/04/15 09:22:31;;;;;;;4.90;1.83;;;;;;;;;;5432573;26;20238;-55
2024/04/15 09:24:57;;;;;;;3.80;1.77;;;;;;;;;;5425397;26;20765;-55
2024/04/15 09:27:26;;;;;;;4.40;1.73;;;;;;;;;;5429478;26;20697;-54
2024/04/15 09:29:52;;;;;;;4.07;1.60;;;;;;;;;;5425992;26;20287;-54
2024/04/15 09:32:21;;;;;;;5.53;2.03;;;;;;;;;;5421761;26;20224;-54
2024/04/15 09:34:48;;;;;;;2.83;1.80;;;;;;;;;;5415250;26;20234;-54
2024/04/15 09:37:14;;;;;;;4.13;2.47;;;;;;;;;;5418344;26;21881;-55
2024/04/15 09:39:41;;;;;;;6.03;2.17;;;;;;;;;;5423166;26;20277;-55
2024/04/15 09:42:08;;;;;;;5.23;2.33;;;;;;;;;;5421914;26;20231;-55
2024/04/15 09:44:34;;;;;;;8.27;2.17;;;;;;;;;;5427948;26;20227;-55
2024/04/15 09:47:02;;;;;;;6.90;1.97;;;;;;;;;;5435147;26;20239;-55
2024/04/15 09:49:30;;;;;;;6.70;2.50;;;;;;;;;;5437680;26;20290;-56
2024/04/15 09:52:01;;;;;;;6.60;2.40;;;;;;;;;;5423773;26;20237;-56
2024/04/15 09:54:30;;;;;;;4.33;1.90;;;;;;;;;;5423991;26;20621;-56
2024/04/15 09:57:01;;;;;;;9.03;2.13;;;;;;;;;;5431316;26;20239;-56
2024/04/15 09:59:31;;;;;;;5.83;1.97;;;;;;;;;;5417513;26;20345;-57
2024/04/15 10:01:59;;;;;;;4.87;2.57;;;;;;;;;;5421225;26;20228;-57
2024/04/15 10:04:26;;;;;;;10.07;2.57;;;;;;;;;;5424996;26;20252;-57
2024/04/15 10:06:58;;;;;;;5.40;2.30;;;;;;;;;;5434326;26;20230;-57
2024/04/15 10:09:25;;;;;;;6.13;2.23;;;;;;;;;;5425822;26;20639;-57
2024/04/15 10:11:51;;;;;;;5.93;1.93;;;;;;;;;;5426311;26;20699;-57
2024/04/15 10:14:18;;;;;;;3.30;1.80;;;;;;;;;;5419696;26;20248;-57
2024/04/15 10:16:48;;;;;;;2.37;1.80;;;;;;;;;;5430059;26;20291;-57
2024/04/15 10:19:23;;;;;;;6.20;2.37;;;;;;;;;;5423722;26;20654;-57
2024/04/15 10:21:49;;;;;;;3.30;2.07;;;;;;;;;;5428671;26;20277;-57
2024/04/15 10:24:15;;;;;;;5.33;2.07;;;;;;;;;;5434129;26;20745;-57
2024/04/15 10:26:44;;;;;;;5.20;1.70;;;;;;;;;;5433388;26;20341;-57
2024/04/15 10:29:20;;;;;;;5.10;2.40;;;;;;;;;;5433593;26;20233;-56
2024/04/15 10:31:57;;;;;;;4.30;2.20;;;;;;;;;;5424351;26;20563;-56
2024/04/15 10:34:23;;;;;;;3.63;2.00;;;;;;;;;;5414007;26;20729;-57
2024/04/15 10:36:53;;;;;;;4.70;2.43;;;;;;;;;;5425523;26;20562;-56
2024/04/15 10:39:19;;;;;;;5.47;2.00;;;;;;;;;;5434279;26;20279;-57
2024/04/15 10:41:46;;;;;;;4.10;2.10;;;;;;;;;;5427669;26;20281;-57
2024/04/15 10:44:12;;;;;;;3.90;1.83;;;;;;;;;;5440657;26;20280;-56
2024/04/15 10:46:43;;;;;;;7.70;2.40;;;;;;;;;;5438714;26;20763;-57
2024/04/15 10:49:09;;;;;;;7.07;2.43;;;;;;;;;;5426865;26;20273;-57
2024/04/15 10:51:35;;;;;;;7.63;2.17;;;;;;;;;;5430957;26;22019;-58
2024/04/15 10:54:02;;;;;;;3.87;2.23;;;;;;;;;;5436159;26;20235;-58
2024/04/15 10:56:28;;;;;;;4.43;1.93;;;;;;;;;;5421180;26;20234;-56
2024/04/15 10:58:54;;;;;;;2.60;1.93;;;;;;;;;;5425042;26;20248;-57
2024/04/15 11:01:21;;;;;;;6.10;2.07;;;;;;;;;;5434519;26;20338;-57
2024/04/15 11:03:48;;;;;;;4.93;1.87;;;;;;;;;;5420678;26;20242;-57
2024/04/15 11:06:14;;;;;;;4.40;2.20;;;;;;;;;;5431305;26;20239;-56
2024/04/15 11:08:40;;;;;;;4.33;1.93;;;;;;;;;;5437760;26;20274;-55
2024/04/15 11:11:09;;;;;;;5.10;2.30;;;;;;;;;;5424301;26;20237;-55
2024/04/15 11:13:36;;;;;;;6.23;2.23;;;;;;;;;;5432697;26;20274;-57
2024/04/15 11:16:02;;;;;;;7.20;2.10;;;;;;;;;;5421209;26;20702;-55
2024/04/15 11:18:28;;;;;;;6.03;2.50;;;;;;;;;;5420320;26;20233;-56
2024/04/15 11:21:02;;;;;;;4.67;2.47;;;;;;;;;;5420686;26;20346;-56
2024/04/15 11:23:28;;;;;;;3.37;1.90;;;;;;;;;;5422997;26;20793;-55
2024/04/15 11:25:54;;;;;;;4.93;1.80;;;;;;;;;;5438012;26;20222;-55
2024/04/15 11:28:21;;;;;;;5.20;1.93;;;;;;;;;;5424074;26;20626;-55
2024/04/15 11:30:47;;;;;;;6.43;2.40;;;;;;;;;;5420859;26;20717;-55
2024/04/15 11:33:14;;;;;;;3.67;2.03;;;;;;;;;;5429790;26;20247;-56
2024/04/15 11:35:50;;;;;;;4.00;1.83;;;;;;;;;;5431479;26;20234;-55
2024/04/15 11:38:16;;;;;;;6.10;2.63;;;;;;;;;;5428886;26;20759;-55
2024/04/15 11:40:42;;;;;;;6.20;2.13;;;;;;;;;;5414616;26;21586;-55
2024/04/15 11:43:08;;;;;;;3.60;1.87;;;;;;;;;;5432191;26;20333;-55
2024/04/15 11:45:34;;;;;;;4.40;2.03;;;;;;;;;;5421042;26;20278;-55
2024/04/15 11:48:00;;;;;;;5.63;2.30;;;;;;;;;;5431618;26;20352;-55
2024/04/15 11:50:26;;;;;;;4.70;2.10;;;;;;;;;;5421626;26;20613;-56
2024/04/15 11:52:57;;;;;;;4.27;2.37;;;;;;;;;;5439184;26;20330;-55
2024/04/15 11:55:23;;;;;;;6.13;1.87;;;;;;;;;;5427970;26;20230;-55
2024/04/15 11:57:50;;;;;;;4.97;2.53;;;;;;;;;;5420399;26;20226;-55
2024/04/15 12:00:16;;;;;;;7.40;2.00;;;;;;;;;;5430121;26;20238;-54
2024/04/15 12:02:43;;;;;;;6.40;1.80;;;;;;;;;;5441612;26;20749;-54
2024/04/15 12:05:10;;;;;;;4.63;1.73;;;;;;;;;;5427409;26;20337;-54
2024/04/15 12:07:36;;;;;;;5.17;2.17;;;;;;;;;;5430896;26;20562;-53
2024/04/15 12:10:03;;;;;;;4.33;2.20;;;;;;;;;;5430256;26;20257;-54
2024/04/15 12:12:30;;;;;;;3.23;1.70;;;;;;;;;;5426397;26;20640;-55
2024/04/15 12:14:56;;;;;;;4.07;1.60;;;;;;;;;;5432332;26;20242;-53
2024/04/15 12:17:22;;;;;;;3.47;1.47;;;;;;;;;;5435737;26;20250;-53
2024/04/15 12:19:48;;;;;;;6.37;2.17;;;;;;;;;;5425952;26;20221;-53
2024/04/15 12:22:14;;;;;;;5.13;1.90;;;;;;;;;;5430160;26;20261;-53
2024/04/15 12:24:40;;;;;;;3.53;1.63;;;;;;;;;;5424318;26;20230;-54
2024/04/15 12:27:06;;;;;;;4.60;1.83;;;;;;;;;;5430869;26;20345;-53
2024/04/15 12:29:32;;;;;;;6.90;2.23;;;;;;;;;;5422922;26;20238;-54
2024/04/15 12:31:58;;;;;;;4.63;1.40;;;;;;;;;;5425758;26;20242;-54
2024/04/15 12:34:25;;;;;;;3.87;1.53;;;;;;;;;;5431713;26;20234;-53
2024/04/15 12:36:51;;;;;;;3.43;1.60;;;;;;;;;;5434403;26;20229;-54
2024/04/15 12:39:17;;;;;;;4.73;1.93;;;;;;;;;;5419991;26;20315;-54
2024/04/15 12:41:43;;;;;;;7.33;1.63;;;;;;;;;;5420337;26;20239;-54
2024/04/15 12:44:09;;;;;;;2.53;1.37;;;;;;;;;;5418032;26;20238;-54
2024/04/15 12:46:36;;;;;;;3.77;1.80;;;;;;;;;;5428214;26;20229;-53
2024/04/15 12:49:02;;;;;;;6.57;1.57;;;;;;;;;;5433329;26;20234;-54
2024/04/15 12:51:28;;;;;;;3.90;1.57;;;;;;;;;;5426190;26;20230;-55
2024/04/15 12:53:54;;;;;;;2.97;1.40;;;;;;;;;;5427444;26;20261;-53
2024/04/15 12:56:20;;;;;;;2.80;1.30;;;;;;;;;;5429094;26;20574;-54
2024/04/15 12:58:46;;;;;;;5.67;1.90;;;;;;;;;;5417644;26;20234;-53
2024/04/15 13:01:12;;;;;;;3.33;1.60;;;;;;;;;;5424864;26;20261;-53
2024/04/15 13:03:38;;;;;;;3.83;1.87;;;;;;;;;;5420993;26;20237;-54
2024/04/15 13:06:04;;;;;;;5.20;1.80;;;;;;;;;;5430247;26;20276;-54
2024/04/15 13:08:31;;;;;;;2.83;1.67;;;;;;;;;;5430280;26;20235;-54
2024/04/15 13:10:57;;;;;;;4.30;1.80;;;;;;;;;;5436111;26;20288;-53
2024/04/15 13:13:23;;;;;;;1.77;1.30;;;;;;;;;;5428956;26;20245;-53
2024/04/15 13:15:49;;;;;;;1.53;1.40;;;;;;;;;;5422094;26;20244;-54
2024/04/15 13:18:15;;;;;;;5.07;1.53;;;;;;;;;;5422494;26;20235;-54
2024/04/15 13:20:44;;;;;;;6.27;1.67;;;;;;;;;;5427798;26;20249;-54
2024/04/15 13:23:10;;;;;;;5.53;1.30;;;;;;;;;;5420216;26;20601;-53
2024/04/15 13:25:36;;;;;;;5.73;1.50;;;;;;;;;;5423232;26;20241;-53
2024/04/15 13:28:02;;;;;;;5.57;1.40;;;;;;;;;;5430409;26;20688;-53
2024/04/15 13:30:28;;;;;;;2.47;1.67;;;;;;;;;;5428036;26;20257;-55
2024/04/15 13:32:54;;;;;;;3.00;1.13;;;;;;;;;;5429627;26;20313;-55
2024/04/15 13:35:20;;;;;;;3.63;1.60;;;;;;;;;;5430293;26;20287;-54
2024/04/15 13:37:46;;;;;;;4.90;1.43;;;;;;;;;;5432819;26;20234;-54
2024/04/15 13:40:13;;;;;;;3.43;1.47;;;;;;;;;;5420024;26;20245;-54
2024/04/15 13:42:39;;;;;;;2.33;1.20;;;;;;;;;;5427833;26;20334;-54
2024/04/15 13:45:06;;;;;;;3.20;1.53;;;;;;;;;;5428440;26;20267;-54
2024/04/15 13:47:32;;;;;;;5.60;1.73;;;;;;;;;;5430344;26;20282;-55
2024/04/15 13:49:58;;;;;;;5.23;1.70;;;;;;;;;;5429358;26;20282;-55
2024/04/15 13:52:24;;;;;;;3.63;1.70;;;;;;;;;;5426433;26;20667;-55
2024/04/15 13:54:50;;;;;;;1.53;1.30;;;;;;;;;;5428807;26;20237;-55
2024/04/15 13:57:17;;;;;;;2.53;1.33;;;;;;;;;;5433073;26;20636;-55
2024/04/15 13:59:43;;;;;;;6.83;1.87;;;;;;;;;;5414618;26;20277;-55
2024/04/15 14:02:10;;;;;;;2.43;1.40;;;;;;;;;;5426305;26;20256;-55
2024/04/15 14:04:36;;;;;;;3.53;1.30;;;;;;;;;;5416624;26;20299;-54
2024/04/15 14:07:02;;;;;;;4.70;1.60;;;;;;;;;;5439093;26;20234;-54
2024/04/15 14:09:28;;;;;;;2.03;1.83;;;;;;;;;;5430881;26;20269;-55
2024/04/15 14:11:54;;;;;;;4.40;1.60;;;;;;;;;;5428678;26;20231;-54
2024/04/15 14:14:20;;;;;;;2.83;1.63;;;;;;;;;;5423552;26;20243;-55
2024/04/15 14:16:47;;;;;;;2.20;1.10;;;;;;;;;;5418351;26;20291;-54
2024/04/15 14:19:13;;;;;;;2.00;1.17;;;;;;;;;;5430754;26;20518;-54
2024/04/15 14:21:39;;;;;;;4.10;1.33;;;;;;;;;;5428883;26;20754;-55
2024/04/15 14:24:05;;;;;;;2.00;1.07;;;;;;;;;;5434949;26;20234;-55
2024/04/15 14:26:32;;;;;;;4.40;1.20;;;;;;;;;;5444496;26;20279;-55
2024/04/15 14:28:58;;;;;;;3.43;1.23;;;;;;;;;;5437615;26;20316;-55
2024/04/15 14:31:24;;;;;;;2.30;1.20;;;;;;;;;;5417351;26;20364;-55
2024/04/15 14:33:50;;;;;;;3.10;1.50;;;;;;;;;;5421655;26;20245;-55
2024/04/15 14:36:16;;;;;;;7.00;1.43;;;;;;;;;;5424188;26;20231;-55
2024/04/15 14:38:43;;;;;;;7.37;1.40;;;;;;;;;;5430997;26;20285;-57